createdAt,value
2022-11-05T00:01:19.122Z,5.6
2022-11-05T00:01:45.368Z,5.6
2022-11-05T00:02:47.276Z,5.6
2022-11-05T00:03:53.536Z,5.6
2022-11-05T00:16:08.938Z,5.5
2022-11-05T00:17:11.957Z,5.5
2022-11-05T00:18:15.446Z,5.4
2022-11-05T00:19:16.939Z,5.4
2022-11-05T00:20:33.019Z,5.5
2022-11-05T00:21:20.943Z,5.5
2022-11-05T00:24:40.071Z,5.3
2022-11-05T00:38:42.652Z,5.1
2022-11-05T00:38:46.634Z,5.1
2022-11-05T00:39:48.641Z,5.1
2022-11-05T00:40:51.427Z,5.1
2022-11-05T00:41:53.437Z,5.1
2022-11-05T00:42:55.474Z,5.1
2022-11-05T00:43:57.482Z,5.1
2022-11-05T00:44:59.428Z,5.1
2022-11-05T00:46:02.433Z,5.1
2022-11-05T00:47:04.440Z,5.1
2022-11-05T00:48:06.439Z,5.1
2022-11-05T00:49:08.460Z,5.1
2022-11-05T00:50:10.445Z,5.2
2022-11-05T00:51:12.432Z,5.3
2022-11-05T00:52:14.445Z,5.3
2022-11-05T00:53:17.440Z,5.3
2022-11-05T00:54:19.462Z,5.2
2022-11-05T00:55:21.435Z,5.2
2022-11-05T00:56:23.451Z,5.2
2022-11-05T00:57:25.458Z,5.3
2022-11-05T00:58:28.456Z,5.2
2022-11-05T00:59:30.482Z,5.2
2022-11-05T01:00:33.442Z,5.2
2022-11-05T01:01:35.546Z,5.2
2022-11-05T01:02:37.583Z,5.1
2022-11-05T01:03:39.520Z,5.1
2022-11-05T01:04:43.452Z,5.1
2022-11-05T01:05:45.485Z,5.1
2022-11-05T01:06:47.454Z,5.1
2022-11-05T01:07:49.476Z,5.1
2022-11-05T01:08:52.455Z,5.1
2022-11-05T01:09:54.460Z,5.1
2022-11-05T01:10:56.473Z,5.1
2022-11-05T01:11:58.455Z,5
2022-11-05T01:13:01.460Z,5
2022-11-05T01:14:03.445Z,5
2022-11-05T01:15:05.454Z,5.1
2022-11-05T01:16:07.480Z,5.1
2022-11-05T01:17:09.534Z,5
2022-11-05T01:18:11.471Z,5.1
2022-11-05T01:19:13.490Z,5.1
2022-11-05T01:20:16.485Z,5.1
2022-11-05T01:21:18.490Z,5.1
2022-11-05T01:22:20.465Z,5.1
2022-11-05T01:23:22.463Z,5.1
2022-11-05T01:24:24.481Z,5.1
2022-11-05T01:25:26.458Z,5.1
2022-11-05T01:26:29.476Z,5.1
2022-11-05T01:27:31.483Z,5.2
2022-11-05T01:28:33.552Z,5.2
2022-11-05T01:29:36.463Z,5.2
2022-11-05T01:30:39.479Z,5.3
2022-11-05T01:31:42.470Z,5.3
2022-11-05T01:32:44.467Z,5.3
2022-11-05T01:33:47.467Z,5.3
2022-11-05T01:34:49.510Z,5.3
2022-11-05T01:35:51.539Z,5.4
2022-11-05T01:36:54.462Z,5.4
2022-11-05T01:37:56.466Z,5.5
2022-11-05T01:38:58.511Z,5.4
2022-11-05T01:40:00.466Z,5.4
2022-11-05T01:41:02.475Z,5.4
2022-11-05T01:42:04.474Z,5.5
2022-11-05T01:43:06.479Z,5.4
2022-11-05T01:44:09.514Z,5.4
2022-11-05T01:45:11.472Z,5.4
2022-11-05T01:46:13.500Z,5.4
2022-11-05T01:47:16.487Z,5.4
2022-11-05T01:48:18.480Z,5.4
2022-11-05T01:49:20.527Z,5.4
2022-11-05T01:50:22.481Z,5.4
2022-11-05T01:51:25.475Z,5.5
2022-11-05T01:52:27.476Z,5.5
2022-11-05T01:53:29.480Z,5.5
2022-11-05T01:54:32.521Z,5.5
2022-11-05T01:55:34.481Z,5.5
2022-11-05T01:56:37.487Z,5.5
2022-11-05T01:57:39.497Z,5.5
2022-11-05T01:58:43.515Z,5.6
2022-11-05T01:59:45.484Z,5.6
2022-11-05T02:00:47.483Z,5.6
2022-11-05T02:01:49.658Z,5.6
2022-11-05T02:03:40.733Z,5.6
2022-11-05T02:04:40.715Z,5.6
2022-11-05T02:05:40.712Z,5.6
2022-11-05T02:06:40.719Z,5.6
2022-11-05T02:07:40.715Z,5.6
2022-11-05T02:08:40.757Z,5.6
2022-11-05T02:09:40.755Z,5.6
2022-11-05T02:10:40.719Z,5.7
2022-11-05T02:11:40.725Z,5.8
2022-11-05T02:12:40.727Z,5.8
2022-11-05T02:13:40.755Z,5.9
2022-11-05T02:14:40.754Z,5.9
2022-11-05T02:15:40.722Z,5.9
2022-11-05T02:16:40.727Z,5.9
2022-11-05T02:17:40.725Z,5.9
2022-11-05T02:18:40.730Z,5.9
2022-11-05T02:19:40.753Z,5.9
2022-11-05T02:20:40.757Z,5.9
2022-11-05T02:21:40.765Z,5.9
2022-11-05T02:22:40.738Z,5.9
2022-11-05T02:23:40.760Z,5.9
2022-11-05T02:24:40.753Z,5.8
2022-11-05T02:25:40.731Z,5.8
2022-11-05T02:26:40.738Z,5.8
2022-11-05T02:27:42.512Z,5.8
2022-11-05T02:28:44.508Z,5.8
2022-11-05T02:29:46.587Z,5.7
2022-11-05T02:30:48.509Z,5.7
2022-11-05T02:31:50.505Z,5.7
2022-11-05T02:32:52.516Z,5.7
2022-11-05T02:33:54.542Z,5.6
2022-11-05T02:34:56.511Z,5.6
2022-11-05T02:35:58.512Z,5.6
2022-11-05T02:37:00.509Z,5.6
2022-11-05T02:38:02.508Z,5.6
2022-11-05T02:39:04.560Z,5.5
2022-11-05T02:40:07.511Z,5.5
2022-11-05T02:41:10.512Z,5.5
2022-11-05T02:42:12.517Z,5.5
2022-11-05T02:43:14.511Z,5.5
2022-11-05T02:44:16.756Z,5.4
2022-11-05T02:45:18.511Z,5.4
2022-11-05T02:46:20.581Z,5.4
2022-11-05T02:47:22.514Z,5.4
2022-11-05T02:48:24.521Z,5.4
2022-11-05T02:49:26.532Z,5.4
2022-11-05T02:50:28.514Z,5.4
2022-11-05T02:51:31.535Z,5.4
2022-11-05T02:52:33.517Z,5.4
2022-11-05T02:53:35.520Z,5.4
2022-11-05T02:54:37.573Z,5.4
2022-11-05T02:55:39.538Z,5.4
2022-11-05T02:56:42.560Z,5.4
2022-11-05T02:57:44.528Z,5.5
2022-11-05T02:58:46.530Z,5.5
2022-11-05T02:59:49.552Z,5.5
2022-11-05T03:00:51.527Z,5.6
2022-11-05T03:01:53.742Z,5.6
2022-11-05T03:02:55.574Z,5.6
2022-11-05T03:03:57.550Z,5.6
2022-11-05T03:05:00.528Z,5.6
2022-11-05T03:06:02.567Z,5.6
2022-11-05T03:07:05.532Z,5.6
2022-11-05T03:08:07.540Z,5.6
2022-11-05T03:09:10.575Z,5.6
2022-11-05T03:10:12.532Z,5.6
2022-11-05T03:11:14.540Z,5.6
2022-11-05T03:12:16.539Z,5.6
2022-11-05T03:13:18.540Z,5.6
2022-11-05T03:14:20.555Z,5.6
2022-11-05T03:15:22.549Z,5.6
2022-11-05T03:16:25.544Z,5.6
2022-11-05T03:17:27.540Z,5.6
2022-11-05T03:18:29.543Z,5.6
2022-11-05T03:19:31.566Z,5.6
2022-11-05T03:20:33.562Z,5.6
2022-11-05T03:21:35.575Z,5.7
2022-11-05T03:22:37.542Z,5.7
2022-11-05T03:23:39.606Z,5.7
2022-11-05T03:24:42.547Z,5.7
2022-11-05T03:25:44.621Z,5.7
2022-11-05T03:26:47.545Z,5.7
2022-11-05T03:27:49.558Z,5.7
2022-11-05T03:28:51.546Z,5.7
2022-11-05T03:29:53.544Z,5.7
2022-11-05T03:30:55.734Z,5.7
2022-11-05T03:31:57.573Z,5.7
2022-11-05T03:32:59.552Z,5.7
2022-11-05T03:34:01.553Z,5.7
2022-11-05T03:35:03.567Z,5.7
2022-11-05T03:36:06.746Z,5.7
2022-11-05T03:37:08.567Z,5.7
2022-11-05T03:38:10.551Z,5.7
2022-11-05T03:39:12.604Z,5.7
2022-11-05T03:40:14.557Z,5.7
2022-11-05T03:41:16.597Z,5.7
2022-11-05T03:42:18.567Z,5.7
2022-11-05T03:43:21.561Z,5.7
2022-11-05T03:44:23.607Z,5.7
2022-11-05T03:45:25.560Z,5.7
2022-11-05T03:46:27.565Z,5.7
2022-11-05T03:47:29.565Z,5.7
2022-11-05T03:48:31.602Z,5.7
2022-11-05T03:49:33.577Z,5.7
2022-11-05T03:50:40.919Z,5.7
2022-11-05T03:51:37.561Z,5.7
2022-11-05T03:52:39.609Z,5.7
2022-11-05T03:53:43.578Z,5.7
2022-11-05T03:54:46.576Z,5.7
2022-11-05T03:55:48.603Z,5.8
2022-11-05T03:56:51.561Z,5.8
2022-11-05T03:57:53.566Z,5.8
2022-11-05T03:58:58.923Z,5.8
2022-11-05T03:59:57.566Z,5.8
2022-11-05T04:01:00.586Z,5.8
2022-11-05T04:02:02.786Z,5.7
2022-11-05T04:03:04.668Z,5.7
2022-11-05T04:04:06.567Z,5.8
2022-11-05T04:05:08.590Z,5.8
2022-11-05T04:06:10.584Z,5.8
2022-11-05T04:07:12.612Z,5.8
2022-11-05T04:08:14.745Z,5.8
2022-11-05T04:09:16.581Z,5.8
2022-11-05T04:10:18.611Z,5.9
2022-11-05T04:11:21.651Z,5.9
2022-11-05T04:12:23.579Z,5.9
2022-11-05T04:13:25.612Z,5.9
2022-11-05T04:14:27.630Z,5.8
2022-11-05T04:15:30.571Z,5.8
2022-11-05T04:16:32.573Z,5.8
2022-11-05T04:17:34.609Z,5.7
2022-11-05T04:18:36.617Z,5.7
2022-11-05T04:19:39.595Z,5.7
2022-11-05T04:20:42.580Z,5.7
2022-11-05T04:21:44.579Z,5.7
2022-11-05T04:22:46.591Z,5.7
2022-11-05T04:23:48.588Z,5.7
2022-11-05T04:24:50.583Z,5.7
2022-11-05T04:25:52.580Z,5.7
2022-11-05T04:26:54.613Z,5.7
2022-11-05T04:27:56.586Z,5.7
2022-11-05T04:29:00.522Z,5.7
2022-11-05T04:30:00.613Z,5.7
2022-11-05T04:31:02.587Z,5.7
2022-11-05T04:32:04.598Z,5.7
2022-11-05T04:33:06.592Z,5.7
2022-11-05T04:34:09.593Z,5.8
2022-11-05T04:35:11.589Z,5.8
2022-11-05T04:36:13.588Z,5.8
2022-11-05T04:37:15.612Z,5.8
2022-11-05T04:38:17.596Z,5.8
2022-11-05T04:39:19.594Z,5.8
2022-11-05T04:40:21.595Z,5.8
2022-11-05T04:41:24.597Z,5.8
2022-11-05T04:42:26.626Z,5.8
2022-11-05T04:43:28.596Z,5.8
2022-11-05T04:44:30.647Z,5.8
2022-11-05T04:45:32.599Z,5.8
2022-11-05T04:46:34.599Z,5.8
2022-11-05T04:47:36.625Z,5.8
2022-11-05T04:48:39.618Z,5.8
2022-11-05T04:49:42.606Z,5.8
2022-11-05T04:50:44.630Z,5.9
2022-11-05T04:51:46.602Z,5.9
2022-11-05T04:52:48.601Z,5.9
2022-11-05T04:53:50.611Z,5.9
2022-11-05T04:54:52.624Z,5.9
2022-11-05T04:55:54.627Z,5.9
2022-11-05T04:56:57.612Z,5.9
2022-11-05T04:57:59.614Z,5.9
2022-11-05T04:59:02.610Z,5.9
2022-11-05T05:00:04.647Z,5.9
2022-11-05T05:01:06.674Z,6
2022-11-05T05:02:08.702Z,6
2022-11-05T05:03:11.906Z,6
2022-11-05T05:04:13.646Z,6
2022-11-05T05:05:15.647Z,6
2022-11-05T05:06:17.614Z,6
2022-11-05T05:07:19.613Z,6
2022-11-05T05:08:22.623Z,6
2022-11-05T05:09:24.619Z,6
2022-11-05T05:10:26.658Z,6
2022-11-05T05:11:28.614Z,6
2022-11-05T05:12:30.615Z,6
2022-11-05T05:13:32.615Z,6.1
2022-11-05T05:14:34.614Z,6.1
2022-11-05T05:15:36.618Z,6.1
2022-11-05T05:16:39.639Z,6.1
2022-11-05T05:17:42.641Z,6
2022-11-05T05:18:46.473Z,6
2022-11-05T05:19:46.656Z,6.1
2022-11-05T05:20:48.628Z,6.2
2022-11-05T05:21:50.631Z,6.2
2022-11-05T05:22:53.626Z,6.2
2022-11-05T05:23:55.674Z,6.2
2022-11-05T05:24:58.670Z,6.2
2022-11-05T05:26:00.626Z,6.2
2022-11-05T05:27:02.634Z,6.2
2022-11-05T05:28:04.631Z,6.2
2022-11-05T05:29:06.635Z,6.2
2022-11-05T05:30:08.664Z,6.2
2022-11-05T05:31:11.634Z,6.2
2022-11-05T05:32:13.631Z,6.1
2022-11-05T05:33:15.633Z,6.1
2022-11-05T05:34:17.656Z,6.1
2022-11-05T05:35:19.629Z,6.1
2022-11-05T05:36:21.634Z,6.1
2022-11-05T05:37:23.645Z,6.1
2022-11-05T05:38:25.644Z,6.1
2022-11-05T05:39:28.684Z,6.1
2022-11-05T05:40:30.630Z,6.1
2022-11-05T05:41:32.638Z,6.2
2022-11-05T05:42:40.234Z,6.2
2022-11-05T05:43:36.650Z,6.2
2022-11-05T05:44:39.689Z,6.2
2022-11-05T05:45:42.643Z,6.1
2022-11-05T05:46:44.634Z,6.1
2022-11-05T05:47:46.672Z,6.1
2022-11-05T05:48:48.649Z,6.1
2022-11-05T05:49:50.674Z,6.1
2022-11-05T05:50:53.643Z,6.2
2022-11-05T05:51:55.653Z,6.2
2022-11-05T05:52:57.640Z,6.2
2022-11-05T05:53:59.651Z,6.2
2022-11-05T05:55:02.684Z,6.1
2022-11-05T05:56:05.652Z,6.1
2022-11-05T05:57:07.644Z,6.1
2022-11-05T05:58:09.647Z,6.1
2022-11-05T05:59:11.646Z,6.1
2022-11-05T06:00:13.671Z,6.1
2022-11-05T06:01:18.906Z,6.2
2022-11-05T06:02:17.788Z,6.2
2022-11-05T06:03:19.686Z,6.1
2022-11-05T06:04:22.667Z,6.1
2022-11-05T06:05:24.664Z,6.1
2022-11-05T06:06:26.660Z,6
2022-11-05T06:07:31.839Z,6
2022-11-05T06:08:31.958Z,6
2022-11-05T06:09:33.678Z,6
2022-11-05T06:10:35.721Z,6
2022-11-05T06:11:37.661Z,6
2022-11-05T06:12:39.674Z,5.9
2022-11-05T06:13:43.667Z,5.9
2022-11-05T06:14:45.689Z,5.9
2022-11-05T06:15:47.662Z,5.9
2022-11-05T06:16:50.662Z,5.9
2022-11-05T06:17:52.666Z,5.9
2022-11-05T06:18:55.704Z,5.9
2022-11-05T06:19:57.686Z,5.9
2022-11-05T06:20:59.660Z,5.9
2022-11-05T06:22:01.697Z,5.9
2022-11-05T06:23:04.673Z,5.9
2022-11-05T06:24:06.668Z,5.9
2022-11-05T06:25:08.768Z,5.9
2022-11-05T06:26:10.667Z,5.9
2022-11-05T06:27:12.672Z,5.9
2022-11-05T06:28:15.672Z,5.8
2022-11-05T06:29:17.674Z,5.8
2022-11-05T06:30:19.696Z,5.9
2022-11-05T06:31:21.671Z,5.9
2022-11-05T06:32:23.680Z,5.8
2022-11-05T06:33:26.675Z,5.9
2022-11-05T06:34:28.671Z,5.9
2022-11-05T06:35:30.700Z,5.9
2022-11-05T06:36:32.674Z,5.9
2022-11-05T06:37:35.755Z,5.9
2022-11-05T06:38:36.681Z,5.9
2022-11-05T06:39:39.706Z,5.9
2022-11-05T06:40:42.706Z,5.9
2022-11-05T06:42:11.912Z,6
2022-11-05T06:42:46.683Z,6
2022-11-05T06:43:48.713Z,6
2022-11-05T06:44:51.705Z,6
2022-11-05T06:45:54.745Z,6
2022-11-05T06:46:55.688Z,6
2022-11-05T06:47:57.828Z,6
2022-11-05T06:49:00.715Z,6
2022-11-05T06:50:03.752Z,6
2022-11-05T06:51:04.689Z,6
2022-11-05T06:52:06.682Z,6
2022-11-05T06:53:09.019Z,6
2022-11-05T06:54:11.915Z,6
2022-11-05T06:55:12.692Z,6
2022-11-05T06:56:15.685Z,6.1
2022-11-05T06:57:17.686Z,6.1
2022-11-05T06:58:19.694Z,6.2
2022-11-05T06:59:21.971Z,6.2
2022-11-05T07:00:23.728Z,6.3
2022-11-05T07:01:26.290Z,6.4
2022-11-05T07:02:27.764Z,6.4
2022-11-05T07:03:29.687Z,6.4
2022-11-05T07:04:31.724Z,6.5
2022-11-05T07:05:35.747Z,6.5
2022-11-05T07:06:37.085Z,6.5
2022-11-05T07:07:37.694Z,6.5
2022-11-05T07:08:39.779Z,6.5
2022-11-05T07:09:44.851Z,6.5
2022-11-05T07:10:45.691Z,6.5
2022-11-05T07:11:47.711Z,6.5
2022-11-05T07:12:49.697Z,6.6
2022-11-05T07:13:51.743Z,6.6
2022-11-05T07:14:53.717Z,6.5
2022-11-05T07:15:55.704Z,6.5
2022-11-05T07:16:57.704Z,6.5
2022-11-05T07:17:59.711Z,6.5
2022-11-05T07:19:01.795Z,6.5
2022-11-05T07:20:03.715Z,6.5
2022-11-05T07:21:05.741Z,6.5
2022-11-05T07:22:07.699Z,6.5
2022-11-05T07:23:10.099Z,6.5
2022-11-05T07:24:12.731Z,6.5
2022-11-05T07:25:14.716Z,6.5
2022-11-05T07:26:16.747Z,6.5
2022-11-05T07:27:18.711Z,6.5
2022-11-05T07:28:20.789Z,6.5
2022-11-05T07:29:22.704Z,6.5
2022-11-05T07:30:24.725Z,6.5
2022-11-05T07:31:26.754Z,6.5
2022-11-05T07:32:29.710Z,6.5
2022-11-05T07:33:36.261Z,6.5
2022-11-05T07:34:33.727Z,6.5
2022-11-05T07:35:35.717Z,6.5
2022-11-05T07:36:37.756Z,6.6
2022-11-05T07:37:39.727Z,6.6
2022-11-05T07:38:42.726Z,6.6
2022-11-05T07:39:44.717Z,6.6
2022-11-05T07:40:46.716Z,6.6
2022-11-05T07:41:48.745Z,6.6
2022-11-05T07:42:50.717Z,6.5
2022-11-05T07:43:53.761Z,6.5
2022-11-05T07:44:55.727Z,6.6
2022-11-05T07:45:57.752Z,6.5
2022-11-05T07:46:59.722Z,6.5
2022-11-05T07:48:02.747Z,6.5
2022-11-05T07:49:04.730Z,6.5
2022-11-05T07:50:06.756Z,6.5
2022-11-05T07:51:08.752Z,6.6
2022-11-05T07:52:10.745Z,6.6
2022-11-05T07:53:13.185Z,6.6
2022-11-05T07:54:14.728Z,6.6
2022-11-05T07:55:16.745Z,6.6
2022-11-05T07:56:18.726Z,6.6
2022-11-05T07:57:20.735Z,6.6
2022-11-05T07:58:22.732Z,6.6
2022-11-05T07:59:24.788Z,6.6
2022-11-05T08:00:26.851Z,6.7
2022-11-05T08:01:29.045Z,6.7
2022-11-05T08:02:30.896Z,6.7
2022-11-05T08:03:32.893Z,6.7
2022-11-05T08:04:34.760Z,6.7
2022-11-05T08:05:36.745Z,6.7
2022-11-05T08:06:40.999Z,6.7
2022-11-05T08:07:42.742Z,6.8
2022-11-05T08:08:44.771Z,6.8
2022-11-05T08:09:46.739Z,6.8
2022-11-05T08:10:48.735Z,6.8
2022-11-05T08:11:53.040Z,6.9
2022-11-05T08:12:52.739Z,6.9
2022-11-05T08:13:54.801Z,6.9
2022-11-05T08:14:56.739Z,6.9
2022-11-05T08:15:58.748Z,7
2022-11-05T08:17:00.743Z,7
2022-11-05T08:18:02.758Z,6.9
2022-11-05T08:19:04.783Z,6.9
2022-11-05T08:20:06.766Z,7
2022-11-05T08:21:08.755Z,7
2022-11-05T08:22:10.753Z,7
2022-11-05T08:23:13.124Z,7
2022-11-05T08:24:14.788Z,7
2022-11-05T08:25:16.751Z,7
2022-11-05T08:26:18.740Z,7
2022-11-05T08:27:20.875Z,7
2022-11-05T08:28:22.753Z,7.1
2022-11-05T08:29:24.799Z,7.1
2022-11-05T08:30:26.756Z,7.2
2022-11-05T08:31:29.759Z,7.2
2022-11-05T08:32:31.756Z,7.2
2022-11-05T08:33:33.793Z,7.2
2022-11-05T08:34:35.757Z,7.2
2022-11-05T08:35:37.774Z,7.2
2022-11-05T08:36:39.775Z,7.2
2022-11-05T08:37:43.765Z,7.2
2022-11-05T08:38:45.795Z,7.2
2022-11-05T08:39:47.800Z,7.2
2022-11-05T08:40:49.799Z,7.1
2022-11-05T08:41:51.761Z,7.1
2022-11-05T08:42:53.759Z,7.2
2022-11-05T08:43:55.814Z,7.2
2022-11-05T08:44:57.768Z,7.2
2022-11-05T08:45:59.793Z,7.2
2022-11-05T08:47:01.764Z,7.2
2022-11-05T08:48:03.765Z,7.2
2022-11-05T08:49:05.801Z,7.2
2022-11-05T08:50:07.777Z,7.3
2022-11-05T08:51:09.766Z,7.3
2022-11-05T08:52:11.768Z,7.3
2022-11-05T08:53:15.258Z,7.3
2022-11-05T08:54:16.844Z,7.4
2022-11-05T08:55:18.772Z,7.4
2022-11-05T08:56:21.825Z,7.3
2022-11-05T08:57:23.783Z,7.4
2022-11-05T08:58:25.776Z,7.4
2022-11-05T08:59:27.815Z,7.4
2022-11-05T09:00:29.777Z,7.5
2022-11-05T09:01:31.966Z,7.5
2022-11-05T09:02:33.886Z,7.5
2022-11-05T09:03:35.805Z,7.5
2022-11-05T09:04:37.823Z,7.5
2022-11-05T09:05:41.794Z,7.5
2022-11-05T09:06:43.789Z,7.6
2022-11-05T09:07:45.783Z,7.6
2022-11-05T09:08:47.816Z,7.6
2022-11-05T09:09:50.836Z,7.6
2022-11-05T09:10:52.930Z,7.6
2022-11-05T09:12:11.754Z,7.7
2022-11-05T09:12:56.798Z,7.7
2022-11-05T09:13:58.791Z,7.8
2022-11-05T09:15:01.889Z,7.8
2022-11-05T09:16:03.797Z,7.8
2022-11-05T09:17:06.786Z,7.8
2022-11-05T09:18:08.841Z,7.9
2022-11-05T09:19:10.839Z,7.9
2022-11-05T09:20:12.821Z,7.9
2022-11-05T09:21:14.793Z,7.9
2022-11-05T09:22:17.776Z,7.9
2022-11-05T09:23:19.795Z,7.9
2022-11-05T09:24:21.815Z,8
2022-11-05T09:25:23.884Z,8
2022-11-05T09:26:27.744Z,8
2022-11-05T09:27:28.635Z,8
2022-11-05T09:28:29.791Z,8
2022-11-05T09:29:31.838Z,8
2022-11-05T09:30:34.808Z,8.1
2022-11-05T09:31:36.800Z,8.1
2022-11-05T09:32:39.816Z,8.1
2022-11-05T09:33:42.814Z,8.1
2022-11-05T09:34:44.802Z,8.1
2022-11-05T09:35:46.807Z,8.1
2022-11-05T09:36:48.800Z,8.1
2022-11-05T09:37:50.831Z,8.1
2022-11-05T09:38:52.837Z,8.1
2022-11-05T09:39:54.807Z,8.1
2022-11-05T09:40:56.830Z,8.1
2022-11-05T09:41:58.817Z,8.1
2022-11-05T09:43:01.811Z,8.1
2022-11-05T09:44:03.827Z,8.1
2022-11-05T09:45:05.809Z,8.1
2022-11-05T09:46:07.799Z,8.1
2022-11-05T09:47:09.809Z,8.1
2022-11-05T09:48:11.833Z,8
2022-11-05T09:49:13.816Z,8
2022-11-05T09:50:15.811Z,8
2022-11-05T09:51:23.449Z,8
2022-11-05T09:52:19.810Z,8
2022-11-05T09:53:21.899Z,8
2022-11-05T09:54:23.811Z,8
2022-11-05T09:55:25.813Z,8
2022-11-05T09:56:27.851Z,8
2022-11-05T09:57:30.831Z,8
2022-11-05T09:58:32.829Z,8
2022-11-05T09:59:34.827Z,8
2022-11-05T10:00:37.827Z,8.1
2022-11-05T10:01:39.953Z,8.1
2022-11-05T10:02:42.912Z,8.2
2022-11-05T10:03:44.883Z,8.3
2022-11-05T10:04:46.831Z,8.3
2022-11-05T10:05:48.929Z,8.3
2022-11-05T10:06:50.830Z,8.3
2022-11-05T10:07:52.827Z,8.3
2022-11-05T10:08:54.849Z,8.3
2022-11-05T10:09:56.829Z,8.3
2022-11-05T10:11:03.079Z,8.3
2022-11-05T10:12:00.880Z,8.3
2022-11-05T10:13:02.827Z,8.3
2022-11-05T10:14:04.872Z,8.3
2022-11-05T10:15:06.827Z,8.3
2022-11-05T10:16:08.847Z,8.3
2022-11-05T10:17:10.833Z,8.3
2022-11-05T10:18:12.836Z,8.3
2022-11-05T10:19:14.830Z,8.3
2022-11-05T10:20:16.833Z,8.3
2022-11-05T10:21:37.768Z,8.3
2022-11-05T10:22:21.834Z,8.3
2022-11-05T10:23:23.841Z,8.3
2022-11-05T10:24:25.833Z,8.3
2022-11-05T10:25:27.912Z,8.3
2022-11-05T10:26:29.849Z,8.3
2022-11-05T10:27:31.860Z,8.3
2022-11-05T10:28:34.838Z,8.3
2022-11-05T10:29:36.845Z,8.3
2022-11-05T10:30:39.870Z,8.4
2022-11-05T10:31:42.850Z,8.4
2022-11-05T10:32:44.850Z,8.4
2022-11-05T10:35:03.397Z,8.5
2022-11-05T10:35:03.933Z,8.5
2022-11-05T10:36:41.317Z,8.5
2022-11-05T10:37:41.289Z,8.5
2022-11-05T10:38:41.172Z,8.5
2022-11-05T10:39:41.162Z,8.5
2022-11-05T10:40:41.171Z,8.4
2022-11-05T10:41:41.220Z,8.4
2022-11-05T10:42:41.240Z,8.4
2022-11-05T10:43:41.171Z,8.4
2022-11-05T10:44:41.178Z,8.5
2022-11-05T10:45:41.179Z,8.4
2022-11-05T10:46:41.232Z,8.4
2022-11-05T10:48:19.058Z,8.5
2022-11-05T10:49:19.866Z,8.5
2022-11-05T10:50:21.905Z,8.5
2022-11-05T10:51:23.860Z,8.5
2022-11-05T10:52:25.851Z,8.6
2022-11-05T10:53:27.871Z,8.6
2022-11-05T10:54:29.853Z,8.5
2022-11-05T10:55:31.949Z,8.6
2022-11-05T10:56:33.868Z,8.5
2022-11-05T10:57:36.863Z,8.6
2022-11-05T10:58:40.858Z,8.6
2022-11-05T10:59:42.866Z,8.6
2022-11-05T11:00:44.979Z,8.6
2022-11-05T11:01:47.068Z,8.6
2022-11-05T11:02:48.865Z,8.6
2022-11-05T11:03:51.892Z,8.6
2022-11-05T11:04:53.866Z,8.7
2022-11-05T11:05:55.871Z,8.7
2022-11-05T11:06:57.885Z,8.7
2022-11-05T11:07:59.869Z,8.7
2022-11-05T11:09:01.873Z,8.7
2022-11-05T11:10:03.909Z,8.7
2022-11-05T11:11:05.868Z,8.7
2022-11-05T11:12:08.872Z,8.7
2022-11-05T11:13:11.099Z,8.7
2022-11-05T11:14:12.870Z,8.7
2022-11-05T11:15:14.926Z,8.8
2022-11-05T11:16:17.879Z,8.8
2022-11-05T11:17:19.869Z,8.8
2022-11-05T11:18:21.883Z,8.8
2022-11-05T11:19:23.879Z,8.8
2022-11-05T11:20:25.966Z,8.8
2022-11-05T11:21:29.044Z,8.8
2022-11-05T11:22:29.880Z,8.8
2022-11-05T11:23:31.888Z,8.8
2022-11-05T11:24:33.882Z,8.8
2022-11-05T11:25:37.230Z,8.8
2022-11-05T11:26:39.917Z,8.8
2022-11-05T11:27:42.894Z,8.8
2022-11-05T11:28:44.884Z,8.8
2022-11-05T11:29:49.522Z,8.8
2022-11-05T11:30:50.012Z,8.8
2022-11-05T11:31:50.904Z,8.8
2022-11-05T11:32:58.420Z,8.8
2022-11-05T11:33:57.045Z,8.8
2022-11-05T11:34:57.892Z,8.8
2022-11-05T11:35:59.931Z,8.8
2022-11-05T11:37:01.918Z,8.8
2022-11-05T11:38:03.902Z,8.8
2022-11-05T11:39:06.939Z,8.8
2022-11-05T11:40:10.137Z,8.8
2022-11-05T11:41:12.458Z,8.8
2022-11-05T11:42:12.902Z,8.8
2022-11-05T11:43:14.896Z,8.8
2022-11-05T11:44:17.980Z,8.8
2022-11-05T11:45:20.603Z,8.8
2022-11-05T11:46:24.473Z,8.8
2022-11-05T11:47:25.023Z,8.8
2022-11-05T11:48:28.238Z,8.8
2022-11-05T11:49:27.092Z,8.8
2022-11-05T11:50:28.935Z,8.8
2022-11-05T11:51:34.932Z,8.8
2022-11-05T11:52:33.920Z,8.8
2022-11-05T11:53:35.906Z,8.8
2022-11-05T11:54:37.941Z,8.8
2022-11-05T11:55:39.920Z,8.8
2022-11-05T11:56:46.258Z,8.8
2022-11-05T11:57:45.897Z,8.8
2022-11-05T11:58:47.911Z,8.8
2022-11-05T12:00:08.191Z,8.8
2022-11-05T12:00:51.907Z,8.8
2022-11-05T12:01:56.472Z,8.7
2022-11-05T12:03:01.643Z,8.7
2022-11-05T12:04:02.705Z,8.7
2022-11-05T12:05:00.935Z,8.7
2022-11-05T12:06:03.575Z,8.6
2022-11-05T12:07:04.911Z,8.7
2022-11-05T12:08:11.175Z,8.6
2022-11-05T12:09:08.956Z,8.6
2022-11-05T12:10:10.910Z,8.6
2022-11-05T12:11:12.936Z,8.6
2022-11-05T12:12:14.908Z,8.5
2022-11-05T12:13:16.919Z,8.5
2022-11-05T12:14:18.960Z,8.5
2022-11-05T12:15:21.959Z,8.4
2022-11-05T12:16:24.549Z,8.4
2022-11-05T12:17:25.922Z,8.4
2022-11-05T12:18:27.926Z,8.4
2022-11-05T12:19:29.933Z,8.4
2022-11-05T12:20:31.972Z,8.4
2022-11-05T12:21:51.406Z,8.4
2022-11-05T12:22:36.709Z,8.4
2022-11-05T12:23:37.935Z,8.4
2022-11-05T12:24:43.934Z,8.4
2022-11-05T12:25:45.956Z,8.4
2022-11-05T12:26:47.930Z,8.4
2022-11-05T12:27:49.962Z,8.4
2022-11-05T12:29:17.356Z,8.4
2022-11-05T12:29:53.966Z,8.4
2022-11-05T12:30:55.950Z,8.5
2022-11-05T12:31:57.958Z,8.5
2022-11-05T12:33:00.005Z,8.5
2022-11-05T12:34:01.958Z,8.5
2022-11-05T12:35:04.932Z,8.6
2022-11-05T12:36:07.927Z,8.6
2022-11-05T12:37:09.941Z,8.6
2022-11-05T12:38:11.933Z,8.6
2022-11-05T12:39:13.962Z,8.6
2022-11-05T12:40:15.938Z,8.6
2022-11-05T12:41:17.936Z,8.7
2022-11-05T12:42:19.931Z,8.7
2022-11-05T12:43:21.940Z,8.7
2022-11-05T12:44:23.980Z,8.7
2022-11-05T12:45:25.936Z,8.7
2022-11-05T12:46:27.950Z,8.7
2022-11-05T12:47:29.968Z,8.7
2022-11-05T12:48:36.722Z,8.7
2022-11-05T12:49:33.966Z,8.7
2022-11-05T12:50:35.945Z,8.7
2022-11-05T12:51:37.946Z,8.7
2022-11-05T12:52:39.952Z,8.7
2022-11-05T12:53:43.948Z,8.7
2022-11-05T12:54:46.002Z,8.7
2022-11-05T12:55:48.914Z,8.7
2022-11-05T12:56:49.954Z,8.7
2022-11-05T12:57:52.114Z,8.7
2022-11-05T12:58:55.336Z,8.7
2022-11-05T12:59:56.063Z,8.7
2022-11-05T13:00:57.992Z,8.7
2022-11-05T13:02:00.104Z,8.7
2022-11-05T13:03:01.959Z,8.7
2022-11-05T13:04:03.951Z,8.8
2022-11-05T13:05:05.991Z,8.8
2022-11-05T13:06:07.957Z,8.8
2022-11-05T13:07:09.950Z,8.8
2022-11-05T13:08:12.988Z,8.8
2022-11-05T13:09:13.956Z,8.8
2022-11-05T13:10:16.412Z,8.9
2022-11-05T13:11:18.546Z,8.9
2022-11-05T13:12:19.960Z,8.9
2022-11-05T13:13:22.967Z,8.9
2022-11-05T13:14:24.977Z,9
2022-11-05T13:15:27.995Z,9
2022-11-05T13:16:29.961Z,9
2022-11-05T13:17:34.090Z,9
2022-11-05T13:18:34.994Z,9
2022-11-05T13:19:36.966Z,9
2022-11-05T13:20:40.168Z,9
2022-11-05T13:21:43.682Z,9
2022-11-05T13:22:44.970Z,8.9
2022-11-05T13:23:46.972Z,8.9
2022-11-05T13:24:48.980Z,8.8
2022-11-05T13:25:51.005Z,8.8
2022-11-05T13:26:52.972Z,8.8
2022-11-05T13:27:55.641Z,8.8
2022-11-05T13:28:56.972Z,8.8
2022-11-05T13:29:58.967Z,8.7
2022-11-05T13:31:02.131Z,8.8
2022-11-05T13:32:04.283Z,8.7
2022-11-05T13:33:04.978Z,8.7
2022-11-05T13:34:06.971Z,8.6
2022-11-05T13:35:08.982Z,8.6
2022-11-05T13:36:10.990Z,8.6
2022-11-05T13:37:13.978Z,8.5
2022-11-05T13:38:16.976Z,8.5
2022-11-05T13:39:20.238Z,8.4
2022-11-05T13:40:21.019Z,8.4
2022-11-05T13:41:23.570Z,8.4
2022-11-05T13:42:24.980Z,8.4
2022-11-05T13:43:27.988Z,8.4
2022-11-05T13:44:32.450Z,8.4
2022-11-05T13:45:31.987Z,8.4
2022-11-05T13:46:33.994Z,8.4
2022-11-05T13:47:35.984Z,8.4
2022-11-05T13:48:42.320Z,8.4
2022-11-05T13:49:39.995Z,8.4
2022-11-05T13:50:43.993Z,8.4
2022-11-05T13:51:46.016Z,8.4
2022-11-05T13:52:48.037Z,8.4
2022-11-05T13:53:50.000Z,8.4
2022-11-05T13:54:52.988Z,8.4
2022-11-05T13:55:55.002Z,8.4
2022-11-05T13:56:57.035Z,8.4
2022-11-05T13:57:59.027Z,8.4
2022-11-05T13:59:00.994Z,8.4
2022-11-05T14:00:03.208Z,8.4
2022-11-05T14:01:05.074Z,8.4
2022-11-05T14:02:08.594Z,8.4
2022-11-05T14:03:09.346Z,8.4
2022-11-05T14:04:11.006Z,8.4
2022-11-05T14:05:12.996Z,8.4
2022-11-05T14:06:15.052Z,8.4
2022-11-05T14:07:17.012Z,8.4
2022-11-05T14:08:19.010Z,8.4
2022-11-05T14:09:21.013Z,8.4
2022-11-05T14:10:22.993Z,8.4
2022-11-05T14:11:25.038Z,8.4
2022-11-05T14:12:27.005Z,8.4
2022-11-05T14:13:28.999Z,8.4
2022-11-05T14:14:31.055Z,8.4
2022-11-05T14:15:33.076Z,8.4
2022-11-05T14:16:35.005Z,8.4
2022-11-05T14:17:38.002Z,8.4
2022-11-05T14:18:40.028Z,8.4
2022-11-05T14:19:43.038Z,8.4
2022-11-05T14:20:45.012Z,8.4
2022-11-05T14:21:47.004Z,8.4
2022-11-05T14:22:49.007Z,8.4
2022-11-05T14:23:51.032Z,8.5
2022-11-05T14:24:53.047Z,8.5
2022-11-05T14:25:55.015Z,8.6
2022-11-05T14:26:57.008Z,8.7
2022-11-05T14:27:59.554Z,8.7
2022-11-05T14:29:01.017Z,8.8
2022-11-05T14:30:03.082Z,8.8
2022-11-05T14:31:05.028Z,8.7
2022-11-05T14:32:09.569Z,8.7
2022-11-05T14:33:11.284Z,8.7
2022-11-05T14:34:13.021Z,8.7
2022-11-05T14:35:15.064Z,8.7
2022-11-05T14:36:17.010Z,8.7
2022-11-05T14:37:19.059Z,8.7
2022-11-05T14:38:21.019Z,8.7
2022-11-05T14:39:23.023Z,8.7
2022-11-05T14:40:25.073Z,8.7
2022-11-05T14:41:28.397Z,8.7
2022-11-05T14:42:30.197Z,8.7
2022-11-05T14:43:32.023Z,8.7
2022-11-05T14:44:34.031Z,8.7
2022-11-05T14:45:36.049Z,8.7
2022-11-05T14:46:38.038Z,8.7
2022-11-05T14:47:40.044Z,8.7
2022-11-05T14:48:44.032Z,8.8